createdAt,value
2018-10-21T00:01:19.671Z,2.70
2018-10-21T00:03:48.523Z,2.70
2018-10-21T00:06:17.292Z,2.70
2018-10-21T00:08:46.041Z,2.80
2018-10-21T00:11:15.127Z,2.80
2018-10-21T00:13:43.884Z,2.90
2018-10-21T00:16:12.622Z,2.90
2018-10-21T00:18:41.339Z,2.90
2018-10-21T00:21:10.122Z,2.90
2018-10-21T00:23:38.815Z,2.90
2018-10-21T00:26:07.638Z,2.90
2018-10-21T00:28:36.366Z,2.90
2018-10-21T00:31:05.225Z,2.80
2018-10-21T00:33:33.973Z,2.70
2018-10-21T00:36:02.739Z,2.70
2018-10-21T00:38:31.482Z,2.60
2018-10-21T00:41:00.210Z,2.50
2018-10-21T00:43:28.928Z,2.50
2018-10-21T00:45:57.683Z,2.50
2018-10-21T00:48:26.388Z,2.60
2018-10-21T00:50:55.188Z,2.50
2018-10-21T00:53:23.958Z,2.50
2018-10-21T00:55:52.718Z,2.50
2018-10-21T00:58:21.464Z,2.60
2018-10-21T01:00:50.174Z,2.60
2018-10-21T01:03:18.910Z,2.50
2018-10-21T01:05:47.677Z,2.50
2018-10-21T01:08:16.391Z,2.50
2018-10-21T01:10:45.138Z,2.50
2018-10-21T01:13:13.978Z,2.50
2018-10-21T01:15:42.690Z,2.50
2018-10-21T01:18:11.385Z,2.60
2018-10-21T01:20:40.116Z,2.60
2018-10-21T01:23:08.847Z,2.60
2018-10-21T01:25:37.598Z,2.60
2018-10-21T01:28:06.533Z,2.60
2018-10-21T01:30:35.271Z,2.60
2018-10-21T01:33:04.113Z,2.50
2018-10-21T01:35:32.764Z,2.50
2018-10-21T01:38:01.523Z,2.50
2018-10-21T01:40:38.340Z,2.50
2018-10-21T01:43:08.061Z,2.50
2018-10-21T01:45:36.819Z,2.50
2018-10-21T01:48:07.032Z,2.50
2018-10-21T01:50:35.793Z,2.50
2018-10-21T01:53:05.617Z,2.40
2018-10-21T01:55:34.381Z,2.40
2018-10-21T01:58:03.347Z,2.30
2018-10-21T02:00:32.799Z,2.30
2018-10-21T11:35:32.874Z,16.70
2018-10-21T11:38:01.818Z,16.50
2018-10-21T11:40:30.754Z,16.40
2018-10-21T11:42:59.952Z,16.50
2018-10-21T11:45:29.125Z,16.70
2018-10-21T11:47:58.316Z,16.90
2018-10-21T11:50:27.309Z,16.80
2018-10-21T11:52:56.278Z,16.60
2018-10-21T11:55:25.444Z,16.70
2018-10-21T11:57:54.285Z,16.80
2018-10-21T12:00:23.340Z,16.60
2018-10-21T12:02:52.493Z,16.60
2018-10-21T12:05:21.473Z,16.70
2018-10-21T12:07:50.458Z,16.70
2018-10-21T12:10:19.507Z,16.80
2018-10-21T12:12:48.641Z,16.70
2018-10-21T12:15:17.547Z,16.70
2018-10-21T12:17:46.500Z,16.80
2018-10-21T12:20:15.451Z,16.80
2018-10-21T12:22:44.408Z,16.90
2018-10-21T12:25:13.522Z,17.00
2018-10-21T12:27:42.333Z,16.90
2018-10-21T12:30:11.344Z,16.90
2018-10-21T12:32:40.351Z,16.80
2018-10-21T12:35:11.284Z,16.80
2018-10-21T12:37:40.462Z,16.60
2018-10-21T12:40:10.410Z,16.60
2018-10-21T12:42:39.782Z,16.80
2018-10-21T12:45:10.221Z,16.90
2018-10-21T12:47:39.339Z,17.00
2018-10-21T12:50:08.584Z,17.00
2018-10-21T12:52:37.429Z,17.00
2018-10-21T12:55:07.341Z,17.00
2018-10-21T12:57:36.148Z,17.10
2018-10-21T13:00:05.164Z,17.00
2018-10-21T13:02:34.019Z,17.00
2018-10-21T13:05:02.877Z,16.80
2018-10-21T13:07:31.781Z,16.80
2018-10-21T13:10:00.663Z,16.70
2018-10-21T13:12:29.505Z,16.70
2018-10-21T13:14:58.362Z,17.00
2018-10-21T13:17:27.189Z,17.00
2018-10-21T13:19:56.146Z,17.10
2018-10-21T13:22:24.948Z,17.10
2018-10-21T13:24:53.824Z,17.00
2018-10-21T13:27:22.615Z,17.00
2018-10-21T13:29:51.493Z,17.00
2018-10-21T13:32:20.320Z,16.90
2018-10-21T13:34:49.170Z,16.80
2018-10-21T13:37:18.049Z,17.20
2018-10-21T13:39:46.962Z,17.30
2018-10-21T13:42:15.782Z,17.30
2018-10-21T13:44:44.631Z,17.30
2018-10-21T13:47:13.428Z,17.40
2018-10-21T13:49:42.281Z,17.30
2018-10-21T13:52:11.285Z,17.40
2018-10-21T13:54:39.992Z,17.50
2018-10-21T13:57:08.840Z,17.40
2018-10-21T13:59:37.659Z,17.40
2018-10-21T14:02:06.561Z,17.50
2018-10-21T14:04:35.364Z,17.50
2018-10-21T14:07:04.314Z,17.60
2018-10-21T14:09:33.136Z,17.70
2018-10-21T14:12:01.951Z,17.70
2018-10-21T14:14:30.797Z,17.70
2018-10-21T14:16:59.594Z,17.60
2018-10-21T14:19:28.470Z,17.60
2018-10-21T14:21:57.363Z,17.60
2018-10-21T14:24:26.248Z,17.60
2018-10-21T14:26:55.069Z,17.60
2018-10-21T14:29:23.909Z,17.60
2018-10-21T14:31:52.811Z,17.70
2018-10-21T14:34:21.627Z,17.80
2018-10-21T14:36:50.556Z,17.80
2018-10-21T14:39:19.445Z,17.80
2018-10-21T14:41:48.311Z,17.70
2018-10-21T14:44:17.162Z,17.70
2018-10-21T14:46:45.997Z,17.70
2018-10-21T14:49:14.755Z,17.60
2018-10-21T14:51:43.499Z,17.60
2018-10-21T14:54:12.360Z,17.60
2018-10-21T14:56:41.037Z,17.50
2018-10-21T14:59:09.789Z,17.40
2018-10-21T15:01:38.503Z,17.30
2018-10-21T15:04:07.318Z,17.20
2018-10-21T15:06:35.994Z,17.00
2018-10-21T15:09:07.794Z,16.90
2018-10-21T15:11:36.529Z,16.70
2018-10-21T15:14:05.680Z,16.70
2018-10-21T15:16:34.411Z,16.60
2018-10-21T15:19:03.176Z,16.50
2018-10-21T15:21:31.872Z,16.30
2018-10-21T15:24:00.605Z,16.20
2018-10-21T15:26:29.368Z,16.10
2018-10-21T15:28:58.149Z,15.90
2018-10-21T15:31:26.867Z,15.80
2018-10-21T15:33:55.603Z,15.70
2018-10-21T15:36:24.431Z,15.50
2018-10-21T15:38:53.204Z,15.40
2018-10-21T15:41:21.987Z,15.30
2018-10-21T15:43:50.722Z,15.10
2018-10-21T15:46:19.496Z,14.90
2018-10-21T15:48:48.272Z,14.80
2018-10-21T15:51:16.981Z,14.70
2018-10-21T15:53:45.670Z,14.50
2018-10-21T15:56:14.480Z,14.30
2018-10-21T15:58:43.162Z,14.20
2018-10-21T16:01:11.940Z,14.10
2018-10-21T16:03:40.683Z,13.90
2018-10-21T16:06:09.399Z,13.80
2018-10-21T16:08:38.141Z,13.70
2018-10-21T16:11:07.144Z,13.50
2018-10-21T16:13:35.972Z,13.30
2018-10-21T16:16:04.706Z,13.10
2018-10-21T16:18:33.510Z,13.00
2018-10-21T16:21:02.364Z,12.80
2018-10-21T16:23:31.230Z,12.60
2018-10-21T16:26:00.077Z,12.50
2018-10-21T16:28:28.835Z,12.30
2018-10-21T16:30:57.469Z,12.10
2018-10-21T16:33:26.215Z,12.00
2018-10-21T16:35:54.942Z,11.90
2018-10-21T16:38:23.754Z,11.80
2018-10-21T16:40:52.505Z,11.60
2018-10-21T16:43:21.207Z,11.40
2018-10-21T16:45:49.950Z,11.30
2018-10-21T16:48:18.726Z,11.00
2018-10-21T16:50:47.533Z,10.80
2018-10-21T16:53:16.353Z,10.60
2018-10-21T16:55:45.030Z,10.50
2018-10-21T16:58:13.757Z,10.40
2018-10-21T17:00:42.598Z,10.40
2018-10-21T17:03:11.310Z,10.30
2018-10-21T17:05:39.996Z,10.20
2018-10-21T17:08:08.765Z,9.90
2018-10-21T17:10:37.687Z,9.70
2018-10-21T17:13:06.284Z,9.60
2018-10-21T17:15:35.025Z,9.60
2018-10-21T17:18:03.782Z,9.50
2018-10-21T17:20:32.564Z,9.30
2018-10-21T17:23:01.303Z,9.10
2018-10-21T17:25:30.032Z,8.90
2018-10-21T17:27:58.800Z,8.80
2018-10-21T17:30:27.521Z,8.80
2018-10-21T17:32:56.275Z,8.70
2018-10-21T17:35:24.983Z,8.60
2018-10-21T17:37:53.691Z,8.60
2018-10-21T17:40:22.435Z,8.40
2018-10-21T17:42:51.149Z,8.30
2018-10-21T17:45:19.893Z,8.20
2018-10-21T17:47:48.633Z,8.20
2018-10-21T17:50:17.350Z,8.10
2018-10-21T17:52:46.122Z,8.10
2018-10-21T17:55:14.997Z,8.00
2018-10-21T17:57:43.735Z,8.00
2018-10-21T18:00:13.314Z,7.80
2018-10-21T18:02:42.065Z,7.70
2018-10-21T18:05:12.325Z,7.60
2018-10-21T18:07:41.570Z,7.60
2018-10-21T18:10:10.677Z,7.50
2018-10-21T18:12:39.571Z,7.40
2018-10-21T18:15:09.150Z,7.40
2018-10-21T18:17:38.483Z,7.40
2018-10-21T18:20:08.419Z,7.40
2018-10-21T18:22:37.122Z,7.40
2018-10-21T18:25:10.011Z,7.40
2018-10-21T18:27:39.096Z,7.40
2018-10-21T18:30:09.063Z,7.30
2018-10-21T18:32:37.829Z,7.30
2018-10-21T18:35:07.507Z,7.20
2018-10-21T18:37:36.304Z,7.10
2018-10-21T18:40:05.849Z,7.00
2018-10-21T18:42:34.631Z,7.00
2018-10-21T18:45:03.399Z,6.90
2018-10-21T18:47:32.147Z,6.80
2018-10-21T18:50:00.914Z,6.80
2018-10-21T18:52:29.631Z,6.80
2018-10-21T18:54:58.358Z,6.80
2018-10-21T18:57:27.101Z,6.70
2018-10-21T18:59:55.823Z,6.70
2018-10-21T19:02:24.572Z,6.60
2018-10-21T19:04:53.334Z,6.60
2018-10-21T19:07:22.032Z,6.50
2018-10-21T19:09:50.797Z,6.40
2018-10-21T19:12:19.541Z,6.40
2018-10-21T19:14:48.241Z,6.40
2018-10-21T19:17:16.982Z,6.30
2018-10-21T19:19:45.734Z,6.20
2018-10-21T19:22:14.647Z,6.10
2018-10-21T19:24:43.263Z,6.00
2018-10-21T19:27:12.183Z,5.90
2018-10-21T19:29:40.848Z,5.90
2018-10-21T19:32:09.654Z,6.00
2018-10-21T19:34:38.454Z,6.00
2018-10-21T19:37:07.250Z,5.90
2018-10-21T19:39:35.962Z,5.80
2018-10-21T19:42:04.933Z,5.80
2018-10-21T19:44:34.177Z,5.80
2018-10-21T19:47:02.931Z,5.80
2018-10-21T19:49:31.710Z,5.80
2018-10-21T19:52:00.487Z,5.80
2018-10-21T19:54:29.183Z,5.80
2018-10-21T19:56:57.936Z,5.60
2018-10-21T19:59:26.636Z,5.60
2018-10-21T20:01:55.402Z,5.50
2018-10-21T20:04:24.095Z,5.40
2018-10-21T20:06:52.797Z,5.40
2018-10-21T20:09:21.548Z,5.30
2018-10-21T20:11:50.299Z,5.10
2018-10-21T20:14:19.062Z,5.10
2018-10-21T20:16:47.755Z,5.10
2018-10-21T20:19:16.564Z,5.00
2018-10-21T20:21:45.319Z,5.00
2018-10-21T20:24:14.074Z,5.00
2018-10-21T20:26:42.817Z,4.90
2018-10-21T20:29:11.555Z,4.90
2018-10-21T20:31:40.483Z,4.90
2018-10-21T20:34:09.210Z,4.90
2018-10-21T20:36:37.945Z,4.90
2018-10-21T20:39:08.506Z,4.90
2018-10-21T20:41:37.700Z,4.90
2018-10-21T20:44:06.460Z,4.90
2018-10-21T20:46:35.202Z,4.90
2018-10-21T20:49:04.004Z,4.90
2018-10-21T20:51:32.875Z,4.90
2018-10-21T20:54:01.551Z,4.90
2018-10-21T20:56:30.291Z,4.80
2018-10-21T20:58:59.018Z,4.80
2018-10-21T21:01:27.767Z,4.70
2018-10-21T21:03:56.689Z,4.60
2018-10-21T21:06:25.523Z,4.50
2018-10-21T21:08:54.308Z,4.50
2018-10-21T21:11:23.040Z,4.50
2018-10-21T21:13:51.796Z,4.50
2018-10-21T21:16:20.507Z,4.50
2018-10-21T21:18:49.251Z,4.50
2018-10-21T21:21:17.969Z,4.50
2018-10-21T21:23:46.712Z,4.40
2018-10-21T21:26:15.446Z,4.40
2018-10-21T21:28:44.239Z,4.40
2018-10-21T21:31:13.000Z,4.40
2018-10-21T21:33:41.718Z,4.40
2018-10-21T21:36:10.512Z,4.40
2018-10-21T21:38:39.250Z,4.40
2018-10-21T21:41:07.974Z,4.40
2018-10-21T21:43:36.812Z,4.40
2018-10-21T21:46:05.963Z,4.60
2018-10-21T21:48:34.649Z,4.70
2018-10-21T21:51:03.468Z,4.70
2018-10-21T21:53:32.239Z,4.70
2018-10-21T21:56:00.953Z,4.80
2018-10-21T21:58:29.715Z,4.80
2018-10-21T22:00:58.486Z,4.90
2018-10-21T22:03:27.219Z,4.90
2018-10-21T22:05:55.999Z,5.00
2018-10-21T22:08:24.821Z,5.10
2018-10-21T22:10:53.548Z,5.10
2018-10-21T22:13:22.323Z,5.20
2018-10-21T22:15:51.179Z,5.30
2018-10-21T22:18:19.931Z,5.30
2018-10-21T22:20:48.648Z,5.40
2018-10-21T22:23:17.418Z,5.40
2018-10-21T22:25:46.135Z,5.40
2018-10-21T22:28:14.973Z,5.40
2018-10-21T22:30:43.719Z,5.40
2018-10-21T22:33:12.467Z,5.30
2018-10-21T22:35:41.228Z,5.30
2018-10-21T22:38:10.660Z,5.30
2018-10-21T22:40:39.442Z,5.20
2018-10-21T22:43:08.171Z,5.20
2018-10-21T22:45:36.961Z,5.10
2018-10-21T22:48:05.813Z,5.00
2018-10-21T22:50:34.593Z,4.90
2018-10-21T22:53:03.327Z,4.90
2018-10-21T22:55:32.079Z,4.90
2018-10-21T22:58:00.849Z,5.00
2018-10-21T23:00:29.679Z,5.10
2018-10-21T23:02:58.394Z,5.20
2018-10-21T23:05:27.158Z,5.40
2018-10-21T23:07:55.857Z,5.50
2018-10-21T23:10:25.026Z,5.70
2018-10-21T23:12:53.754Z,5.80
2018-10-21T23:15:22.483Z,5.90
2018-10-21T23:17:51.238Z,6.00
2018-10-21T23:20:19.960Z,6.10
2018-10-21T23:22:48.715Z,6.20
2018-10-21T23:25:17.461Z,6.30
2018-10-21T23:27:46.183Z,6.40
2018-10-21T23:30:15.010Z,6.50
2018-10-21T23:32:43.722Z,6.50
2018-10-21T23:35:12.461Z,6.60
2018-10-21T23:37:41.161Z,6.60
2018-10-21T23:40:09.970Z,6.60
2018-10-21T23:42:38.716Z,6.70
2018-10-21T23:45:07.517Z,6.80
2018-10-21T23:47:36.258Z,6.80
2018-10-21T23:50:05.140Z,6.80
2018-10-21T23:52:33.882Z,6.90
2018-10-21T23:55:02.596Z,6.90
2018-10-21T23:57:31.334Z,7.00
